Accueil
METAR-TAF:

METAR-TAF

Aéroports :

Aéroport de Chibougamau-Chapais

Chibougamau, Québec, Canada

latitude: 49-46N, longitude: 074-32W, altitude: 388 m

Observation

Le bulletin a été fait il y a 29 minutes, à 07:00 UTC
Vent 7 kt de sud/sud-ouest
Température -9°C
Humidité 67%
Pression 1016 hPa
Visibilité: 14.5 km
Ciel couvert à une hauteur de 9000 ft

METAR: CYMT 200700Z AUTO 21007KT 9SM OVC090 M09/M14 A2999 RMK SLP185

Heure: 03:29 (07:29 UTC)

Prévision

Le bulletin a été fait il y a 13 heures et 49 minutes, à 17:40 UTC
Prévision valable du 19 à 18 UTC au 19 à 24 UTC
Vent 6 kt de sud/sud-ouest
Visibilité: 10 km
Ciel clair
A partir de 19 à 2200 UTC
Vent 8 kt de sud/sud-ouest
Visibilité: 10 km
Nuages épars à une hauteur de 5000 ft
Nuages fragmentés à une hauteur de 20000 ft

TAF: CYMT 191740Z 1918/1924 20006KT P6SM SKC FM192200 20008KT P6SM SCT050 BKN200 RMK FCST BASED ON AUTO OBS. NXT FCST WILL BE ISSUED AT 201145Z

Observations et prévisions météorologiques de plus de 4000 aéroports (messages METAR et TAF).

Les stations disponibles sont représentées par des disques jaunes et rouges sur la carte.

Passer la souris dessus pour voir le nom de la station.

Cliquer dessus pour voir les observations et prévisions météorologiques.

Pour changer de carte: cliquez sur les boutons verts avec une croix noire pour zoomer, sur le bouton vert avec un tiret pour effectuer un zoom arrière, ou sur les flèches vertes pour les cartes adjacentes.


METAR-TAF: